Terminal Aerodrome Forecast
Issued by NWS

Home | Current Version | Previous Version | Text Only | Print | Product List | Glossary On
Versions: 1 2 3 4 5 6 7 8 9 10 11 12 13 14 15 16 17
831
FTUS45 KTFX 242354
TAFCTB
TAF
KCTB 242354Z 2500/2524 35005KT P6SM VCSH SCT045 BKN080
     FM250300 29005KT P6SM SCT060 BKN100
     FM251800 32008KT P6SM SCT040 BKN070=

USA.gov is the U.S. government's official web portal to all federal, state and local government web resources and services.